Time;durP1;ratioP1;P1;durP2;ratioP2;P2;SDS_P1;SDS_P2;PMS_P1;PMS_P2;Temp;Humidity;BMP_temperature;BMP_pressure;BME280_temperature;BME280_humidity;BME280_pressure;Samples;Min_cycle;Max_cycle;Signal;HPM_P1;HPM_P2
2022/08/25 00:01:31;;;;;;;8.45;7.43;;;;;;;22.21;100.00;96494.25;5021161;28;20164;-47
2022/08/25 00:04:01;;;;;;;;;;;;;;;22.07;100.00;96497.22;5019487;28;20088;-53
2022/08/25 00:06:30;;;;;;;12.67;8.07;;;;;;;22.38;100.00;96488.34;5018879;28;19959;-47
2022/08/25 00:08:59;;;;;;;11.48;8.48;;;;;;;22.34;100.00;96492.50;5022720;28;21017;-52
2022/08/25 00:11:30;;;;;;;11.07;7.55;;;;;;;22.43;100.00;96483.94;5022369;28;20101;-46
2022/08/25 00:14:01;;;;;;;11.65;7.95;;;;;;;22.45;100.00;96481.06;5021996;28;20080;-48
2022/08/25 00:16:31;;;;;;;9.10;7.60;;;;;;;22.36;100.00;96475.13;5024254;28;20096;-48
2022/08/25 00:19:05;;;;;;;10.13;8.10;;;;;;;22.25;100.00;96481.19;5022828;28;20085;-46
2022/08/25 00:21:33;;;;;;;12.23;7.57;;;;;;;22.19;100.00;96474.81;5013255;28;20464;-51
2022/08/25 00:24:03;;;;;;;10.35;8.15;;;;;;;22.25;100.00;96473.13;5025116;28;20599;-46
2022/08/25 00:26:31;;;;;;;11.50;7.95;;;;;;;22.30;100.00;96476.00;5021573;28;20077;-46
2022/08/25 00:28:59;;;;;;;7.93;7.05;;;;;;;22.19;100.00;96474.81;5018687;28;20519;-49
2022/08/25 00:31:29;;;;;;;9.60;6.70;;;;;;;21.98;100.00;96475.97;5016898;28;20090;-47
2022/08/25 00:34:10;;;;;;;12.07;6.72;;;;;;;21.81;100.00;96472.13;5022961;28;20488;-50
2022/08/25 00:36:38;;;;;;;9.25;6.78;;;;;;;21.69;100.00;96479.25;5018728;28;20531;-47
2022/08/25 00:39:08;;;;;;;9.02;6.63;;;;;;;21.56;100.00;96474.75;5019493;28;20085;-45
2022/08/25 00:41:37;;;;;;;9.07;7.07;;;;;;;21.42;100.00;96470.47;5021751;28;20321;-47
2022/08/25 00:44:08;;;;;;;8.93;6.53;;;;;;;21.32;100.00;96468.22;5018733;28;20088;-47
2022/08/25 00:46:40;;;;;;;9.35;7.70;;;;;;;20.81;100.00;96487.72;5019658;28;20092;-48
2022/08/25 00:49:13;;;;;;;9.70;7.38;;;;;;;20.97;100.00;96481.94;5021891;28;20073;-50
2022/08/25 00:51:56;;;;;;;9.80;7.80;;;;;;;21.35;100.00;96461.63;5018223;28;20089;-49
2022/08/25 00:54:27;;;;;;;10.75;8.73;;;;;;;21.41;100.00;96466.97;5018925;28;20080;-53
2022/08/25 00:56:57;;;;;;;13.02;7.88;;;;;;;21.39;100.00;96460.19;5019282;28;20554;-49
2022/08/25 00:59:26;;;;;;;12.63;8.75;;;;;;;21.36;100.00;96464.09;5021054;28;20492;-53
2022/08/25 01:01:55;;;;;;;13.47;8.30;;;;;;;21.37;100.00;96464.91;5019628;28;20084;-47
2022/08/25 01:04:26;;;;;;;13.38;8.15;;;;;;;21.34;100.00;96466.19;5019181;28;20085;-47
2022/08/25 01:06:55;;;;;;;12.13;8.02;;;;;;;21.31;100.00;96467.41;5019341;28;20566;-46
2022/08/25 01:09:23;;;;;;;11.93;8.02;;;;;;;21.28;100.00;96467.00;5019353;28;20116;-45
2022/08/25 01:11:52;;;;;;;9.23;7.50;;;;;;;21.29;100.00;96465.94;5019999;28;20081;-46
2022/08/25 01:14:21;;;;;;;8.05;6.60;;;;;;;21.16;100.00;96466.00;5023496;28;20536;-52
2022/08/25 01:16:50;;;;;;;6.50;5.68;;;;;;;20.87;100.00;96468.13;5025877;28;20092;-48
2022/08/25 01:19:21;;;;;;;8.65;5.50;;;;;;;20.80;100.00;96468.13;5021928;28;20086;-51
2022/08/25 01:21:53;;;;;;;6.28;5.07;;;;;;;20.76;100.00;96466.09;5022531;28;20069;-46
2022/08/25 01:24:26;;;;;;;7.80;5.22;;;;;;;20.53;100.00;96477.25;5023820;28;20088;-47
2022/08/25 01:26:54;;;;;;;6.32;5.22;;;;;;;20.44;100.00;96470.41;5025535;28;20504;-50
2022/08/25 01:29:24;;;;;;;6.80;5.60;;;;;;;20.63;100.00;96459.72;5027984;28;20088;-46
2022/08/25 01:31:56;;;;;;;9.83;6.53;;;;;;;20.70;100.00;96461.56;5019547;28;20092;-45
2022/08/25 01:34:25;;;;;;;8.93;6.65;;;;;;;20.30;100.00;96458.84;5027202;28;20084;-49
2022/08/25 01:36:56;;;;;;;7.38;6.03;;;;;;;20.54;100.00;96466.34;5026368;28;20540;-47
2022/08/25 01:39:25;;;;;;;;;;;;;;;20.70;100.00;96464.25;5023280;28;20088;-54
2022/08/25 01:42:08;;;;;;;12.23;6.70;;;;;;;20.80;100.00;96457.41;5024823;28;19964;-47
2022/08/25 01:44:39;;;;;;;8.23;6.82;;;;;;;20.85;100.00;96459.47;5019929;28;20088;-47
2022/08/25 01:47:08;;;;;;;10.15;8.02;;;;;;;20.85;100.00;96459.47;5025191;28;20073;-49
2022/08/25 01:49:36;;;;;;;9.02;6.97;;;;;;;20.86;100.00;96459.28;5027307;28;20077;-50
2022/08/25 01:52:12;;;;;;;9.43;7.30;;;;;;;20.82;100.00;96460.72;5020204;28;20088;-47
2022/08/25 01:54:40;;;;;;;11.40;8.90;;;;;;;20.77;100.00;96470.41;5026718;28;20088;-57
2022/08/25 01:57:09;;;;;;;15.15;10.20;;;;;;;20.82;100.00;96465.28;5023743;28;20088;-46
2022/08/25 01:59:37;;;;;;;14.90;10.48;;;;;;;20.82;100.00;96459.91;5019180;28;20452;-47
2022/08/25 02:02:05;;;;;;;13.52;10.23;;;;;;;20.69;100.00;96465.28;5023750;28;20080;-50
2022/08/25 02:04:34;;;;;;;18.42;9.98;;;;;;;20.73;100.00;96470.00;5024409;28;20472;-47
2022/08/25 02:07:05;;;;;;;15.48;10.25;;;;;;;20.80;100.00;96461.97;5023558;28;20081;-50
2022/08/25 02:09:35;;;;;;;12.63;8.57;;;;;;;20.70;100.00;96465.06;5023621;28;20065;-46
2022/08/25 02:12:04;;;;;;;;;;;;;;;20.63;100.00;96470.44;5027908;28;20081;-45
2022/08/25 02:14:34;;;;;;;15.77;10.10;;;;;;;20.81;100.00;96468.97;5021481;28;19972;-46
2022/08/25 02:17:03;;;;;;;14.93;9.00;;;;;;;20.64;100.00;96476.59;5022652;28;20088;-48
2022/08/25 02:19:32;;;;;;;16.90;10.48;;;;;;;20.67;100.00;96472.69;5021787;28;20073;-49
2022/08/25 02:22:00;;;;;;;14.98;9.93;;;;;;;20.69;100.00;96470.66;5028091;28;20095;-48
2022/08/25 02:24:29;;;;;;;17.25;11.35;;;;;;;20.74;100.00;96471.66;5025511;28;20061;-48
2022/08/25 02:26:59;;;;;;;20.15;11.90;;;;;;;20.69;100.00;96462.59;5026027;28;20080;-46
2022/08/25 02:29:27;;;;;;;16.30;11.27;;;;;;;21.12;100.00;96454.88;5016925;28;20068;-48
2022/08/25 02:31:56;;;;;;;18.10;11.55;;;;;;;20.92;100.00;96462.13;5023004;28;20496;-49
2022/08/25 02:34:24;;;;;;;18.75;11.15;;;;;;;20.99;100.00;96463.78;5024201;28;20077;-50
2022/08/25 02:36:52;;;;;;;15.68;10.43;;;;;;;21.01;100.00;96468.94;5024956;28;20091;-49
2022/08/25 02:39:21;;;;;;;18.77;11.82;;;;;;;20.98;100.00;96463.97;5027784;28;20108;-53
2022/08/25 02:41:50;;;;;;;16.20;12.23;;;;;;;20.83;100.00;96464.22;5026381;28;20077;-46
2022/08/25 02:44:20;;;;;;;16.88;11.80;;;;;;;21.03;100.00;96462.31;5021339;28;20077;-49
2022/08/25 02:46:48;;;;;;;16.00;12.50;;;;;;;21.04;100.00;96447.06;5020330;28;20436;-49
2022/08/25 02:49:17;;;;;;;19.00;12.77;;;;;;;20.92;100.00;96457.63;5022741;28;20075;-46
2022/08/25 02:51:45;;;;;;;18.33;12.57;;;;;;;20.99;100.00;96453.06;5026909;28;20064;-45
2022/08/25 02:54:14;;;;;;;15.48;11.32;;;;;;;21.13;100.00;96455.69;5025405;28;20526;-46
2022/08/25 02:56:43;;;;;;;19.23;12.80;;;;;;;20.96;100.00;96445.44;5023242;28;20326;-46
2022/08/25 02:59:11;;;;;;;19.13;13.43;;;;;;;20.95;100.00;96441.09;5019380;28;20943;-51
2022/08/25 03:01:41;;;;;;;22.30;13.45;;;;;;;21.09;100.00;96437.34;5020419;28;20559;-48
2022/08/25 03:04:10;;;;;;;19.58;13.13;;;;;;;21.17;100.00;96435.47;5027125;28;20530;-50
2022/08/25 03:06:38;;;;;;;19.08;13.48;;;;;;;21.06;100.00;96443.13;5023265;28;20085;-45
2022/08/25 03:09:07;;;;;;;18.05;13.15;;;;;;;20.90;100.00;96445.44;5022293;28;20092;-47
2022/08/25 03:11:37;;;;;;;20.70;13.73;;;;;;;20.94;100.00;96435.94;5022015;28;20075;-48
2022/08/25 03:14:06;;;;;;;19.33;13.98;;;;;;;21.01;100.00;96442.13;5027804;28;20096;-47
2022/08/25 03:16:35;;;;;;;20.13;13.63;;;;;;;21.02;100.00;96435.72;5024215;28;20416;-54
2022/08/25 03:19:05;;;;;;;21.30;13.68;;;;;;;21.07;100.00;96436.72;5027044;28;20046;-47
2022/08/25 03:21:33;;;;;;;19.90;14.93;;;;;;;20.95;100.00;96435.72;5018250;28;20083;-47
2022/08/25 03:24:01;;;;;;;22.60;14.65;;;;;;;20.98;100.00;96439.84;5026646;28;20480;-46
2022/08/25 03:29:17;;;;;;;21.05;14.65;;;;;;;20.71;100.00;96441.75;5021884;28;20107;-45
2022/08/25 03:31:45;;;;;;;21.42;15.85;;;;;;;20.93;100.00;96434.31;5024870;28;20432;-49
2022/08/25 03:34:17;;;;;;;21.85;15.00;;;;;;;20.96;100.00;96442.75;5024264;28;20084;-48
2022/08/25 03:36:48;;;;;;;21.00;15.35;;;;;;;21.21;100.00;96439.38;5017260;28;20100;-48
2022/08/25 03:39:16;;;;;;;;;;;;;;;21.26;100.00;96439.56;5018742;28;20073;-47
2022/08/25 03:41:46;;;;;;;20.63;14.60;;;;;;;20.70;100.00;96446.31;5020487;28;19976;-50
2022/08/25 03:44:14;;;;;;;21.52;14.82;;;;;;;20.71;100.00;96447.94;5023439;28;20507;-49
2022/08/25 03:46:44;;;;;;;23.98;16.05;;;;;;;20.73;100.00;96445.88;5020821;28;20053;-46
2022/08/25 03:49:16;;;;;;;23.27;16.05;;;;;;;20.80;100.00;96441.34;5027107;28;20077;-46
2022/08/25 03:51:46;;;;;;;21.75;15.38;;;;;;;20.62;100.00;96438.50;5024225;28;20116;-51
2022/08/25 03:54:17;;;;;;;25.80;16.60;;;;;;;20.60;100.00;96440.53;5020059;28;20407;-49
2022/08/25 03:56:46;;;;;;;24.80;15.93;;;;;;;20.60;100.00;96432.50;5026876;28;20083;-46
2022/08/25 03:59:15;;;;;;;25.35;15.63;;;;;;;20.60;100.00;96430.66;5021568;28;20081;-50
2022/08/25 04:01:45;;;;;;;27.35;16.83;;;;;;;20.72;100.00;96436.22;5023395;28;20672;-46
2022/08/25 04:04:21;;;;;;;24.02;15.93;;;;;;;20.49;100.00;96435.78;5021688;28;20073;-53
2022/08/25 04:06:49;;;;;;;25.48;17.13;;;;;;;20.67;100.00;96441.34;5017357;28;20111;-47
2022/08/25 04:09:18;;;;;;;24.80;16.60;;;;;;;20.70;100.00;96435.59;5025787;28;20065;-46
2022/08/25 04:11:46;;;;;;;25.02;16.73;;;;;;;20.55;100.00;96435.00;5024172;28;20061;-48
2022/08/25 04:14:21;;;;;;;28.50;16.73;;;;;;;20.56;100.00;96431.28;5021111;28;20069;-49
2022/08/25 04:16:49;;;;;;;27.77;16.80;;;;;;;20.58;100.00;96439.94;5024061;28;20060;-47
2022/08/25 04:19:19;;;;;;;27.70;17.58;;;;;;;20.74;100.00;96439.50;5020533;28;20072;-48
2022/08/25 04:21:49;;;;;;;28.55;17.73;;;;;;;20.58;100.00;96443.44;5026381;28;20445;-48
2022/08/25 04:24:18;;;;;;;29.02;18.10;;;;;;;20.70;100.00;96438.25;5024570;28;20068;-47
2022/08/25 04:26:48;;;;;;;26.55;16.92;;;;;;;20.31;100.00;96444.47;5022237;28;20413;-51
2022/08/25 04:29:17;;;;;;;;;;;;;;;20.55;100.00;96446.53;5025249;28;20081;-48
2022/08/25 04:31:50;;;;;;;25.00;17.48;;;;;;;20.50;100.00;96446.31;5025722;28;20375;-49
2022/08/25 04:34:20;;;;;;;25.35;16.98;;;;;;;20.33;100.00;96440.53;5014445;28;20074;-46
2022/08/25 04:37:01;;;;;;;24.42;15.68;;;;;;;20.63;100.00;96440.13;5020774;28;20084;-46
2022/08/25 04:39:30;;;;;;;24.30;15.05;;;;;;;20.33;100.00;96440.53;5021448;28;20064;-52
2022/08/25 04:41:59;;;;;;;18.90;13.05;;;;;;;20.50;100.00;96440.09;5021292;28;20495;-47
2022/08/25 04:44:29;;;;;;;19.15;13.75;;;;;;;19.79;100.00;96438.84;5028367;28;20096;-46
2022/08/25 04:46:58;;;;;;;20.38;13.80;;;;;;;19.35;100.00;96447.34;5026543;28;20456;-48
2022/08/25 04:49:27;;;;;;;19.40;13.02;;;;;;;19.54;100.00;96443.06;5026528;28;20089;-48
2022/08/25 04:51:56;;;;;;;19.15;12.77;;;;;;;19.94;100.00;96441.34;5028480;28;20065;-52
2022/08/25 04:54:26;;;;;;;21.83;14.15;;;;;;;19.89;100.00;96443.81;5020923;28;20142;-53
2022/08/25 04:56:55;;;;;;;19.88;13.38;;;;;;;20.06;100.00;96441.53;5031597;28;20072;-50
2022/08/25 04:59:26;;;;;;;;;;;;;;;20.41;100.00;96442.19;5029659;28;20080;-47
2022/08/25 05:02:00;;;;;;;21.50;14.80;;;;;;;20.80;100.00;96437.84;5030845;28;19963;-50
2022/08/25 05:04:31;;;;;;;18.50;15.48;;;;;;;22.00;100.00;96425.56;5029147;28;20104;-49
2022/08/25 05:06:59;;;;;;;17.50;14.38;;;;;;;22.20;100.00;96424.63;5032481;28;20551;-52
2022/08/25 05:09:30;;;;;;;16.90;11.70;;;;;;;22.89;100.00;96420.06;5026600;28;20534;-48
2022/08/25 05:12:00;;;;;;;14.68;11.40;;;;;;;23.89;100.00;96415.13;5031875;28;20088;-50
2022/08/25 05:14:29;;;;;;;16.33;11.60;;;;;;;24.31;100.00;96411.56;5032737;28;20081;-49
2022/08/25 05:16:58;;;;;;;15.25;9.80;;;;;;;24.56;100.00;96422.97;5032103;28;20511;-49
2022/08/25 05:19:26;;;;;;;13.25;10.02;;;;;;;24.68;100.00;96417.59;5030724;28;20651;-50
2022/08/25 05:21:54;;;;;;;16.08;8.88;;;;;;;25.04;100.00;96411.09;5025784;28;20095;-47
2022/08/25 05:24:25;;;;;;;;;;;;;;;24.57;100.00;96415.72;5024335;28;20092;-52
2022/08/25 05:26:54;;;;;;;14.45;11.00;;;;;;;24.23;100.00;96414.63;5027548;28;19968;-51
2022/08/25 05:29:23;;;;;;;17.08;11.90;;;;;;;23.47;100.00;96406.16;5020380;28;20076;-48
2022/08/25 05:31:52;;;;;;;15.23;12.27;;;;;;;23.39;100.00;96411.84;5023336;28;20080;-51
2022/08/25 05:34:20;;;;;;;16.20;12.18;;;;;;;23.15;100.00;96410.88;5028605;28;20639;-50
2022/08/25 05:36:50;;;;;;;15.88;12.45;;;;;;;22.89;100.00;96417.38;5029943;28;20093;-49
2022/08/25 05:39:18;;;;;;;17.02;12.73;;;;;;;22.94;100.00;96410.28;5026134;28;20084;-53
2022/08/25 05:41:46;;;;;;;19.23;12.98;;;;;;;23.33;100.00;96412.72;5028026;28;20468;-52
2022/08/25 05:44:17;;;;;;;16.88;13.23;;;;;;;23.45;100.00;96409.06;5029810;28;20096;-46
2022/08/25 05:46:50;;;;;;;16.67;12.77;;;;;;;23.21;100.00;96410.00;5019450;28;20168;-50
2022/08/25 05:49:18;;;;;;;17.75;13.68;;;;;;;22.78;100.00;96413.56;5014001;28;20081;-52
2022/08/25 05:51:47;;;;;;;16.75;13.57;;;;;;;23.42;100.00;96408.69;5019857;28;20081;-51
2022/08/25 05:54:15;;;;;;;19.70;13.48;;;;;;;23.25;100.00;96410.38;5031041;28;20100;-53
2022/08/25 05:56:45;;;;;;;17.33;13.32;;;;;;;23.46;100.00;96408.00;5030845;28;20088;-51
2022/08/25 05:59:13;;;;;;;17.15;13.63;;;;;;;23.18;100.00;96408.56;5031252;28;20080;-53
2022/08/25 06:04:29;;;;;;;17.25;13.25;;;;;;;23.18;100.00;96413.94;5023914;28;20096;-50
2022/08/25 06:06:57;;;;;;;17.55;13.20;;;;;;;23.40;100.00;96419.69;5031490;28;20084;-52
2022/08/25 06:09:26;;;;;;;18.30;12.98;;;;;;;23.62;100.00;96405.75;5029722;28;20539;-49
2022/08/25 06:11:54;;;;;;;18.25;13.48;;;;;;;23.63;100.00;96412.75;5029905;28;20077;-51
2022/08/25 06:14:23;;;;;;;19.17;12.80;;;;;;;23.60;100.00;96410.53;5031612;28;20470;-49
2022/08/25 06:16:54;;;;;;;18.52;13.45;;;;;;;23.61;100.00;96404.94;5030940;28;20089;-53
2022/08/25 06:19:22;;;;;;;18.38;12.77;;;;;;;23.84;100.00;96408.78;5030103;28;20100;-56
2022/08/25 06:21:54;;;;;;;17.17;12.18;;;;;;;24.06;100.00;96401.81;5030533;28;20093;-54
2022/08/25 06:24:23;;;;;;;17.08;12.40;;;;;;;23.84;100.00;96406.06;5030114;28;20085;-50
2022/08/25 06:26:51;;;;;;;15.43;12.23;;;;;;;24.22;100.00;96396.78;5029511;28;20084;-53
2022/08/25 06:29:19;;;;;;;18.02;13.05;;;;;;;23.67;100.00;96393.28;5030094;28;20684;-49
2022/08/25 06:31:48;;;;;;;18.42;12.50;;;;;;;23.94;100.00;96406.34;5030910;28;20077;-48
2022/08/25 06:34:18;;;;;;;17.52;13.85;;;;;;;23.39;100.00;96404.59;5030887;28;20085;-53
2022/08/25 06:36:51;;;;;;;18.23;13.60;;;;;;;23.81;100.00;96409.22;5029117;28;20088;-51
2022/08/25 06:39:20;;;;;;;17.45;13.43;;;;;;;23.90;100.00;96400.59;5030439;28;20088;-51
2022/08/25 06:41:51;;;;;;;19.13;13.00;;;;;;;24.49;100.00;96402.59;5030331;28;20084;-52
2022/08/25 06:44:19;;;;;;;19.02;13.93;;;;;;;23.78;100.00;96410.53;5030699;28;20080;-50
2022/08/25 06:46:48;;;;;;;18.88;13.88;;;;;;;23.83;100.00;96407.13;5025843;28;20488;-56
2022/08/25 06:49:18;;;;;;;17.33;12.85;;;;;;;24.44;100.00;96403.31;5029756;28;20081;-51
2022/08/25 06:51:46;;;;;;;17.60;12.55;;;;;;;24.32;100.00;96410.50;5030590;28;20085;-53
2022/08/25 06:54:14;;;;;;;16.95;13.15;;;;;;;24.28;100.00;96406.66;5030974;28;20096;-54
2022/08/25 06:56:43;;;;;;;16.95;13.23;;;;;;;24.16;100.00;96409.34;5031054;28;20073;-54
2022/08/25 06:59:11;;;;;;;17.15;12.75;;;;;;;24.32;100.00;96407.81;5030719;28;20089;-52
2022/08/25 07:01:40;;;;;;;18.35;13.07;;;;;;;24.86;100.00;96406.69;5022627;28;20081;-48
2022/08/25 07:04:09;;;;;;;17.35;12.57;;;;;;;25.40;100.00;96403.78;5023986;28;20049;-52
2022/08/25 07:06:42;;;;;;;15.68;12.90;;;;;;;25.29;100.00;96408.16;5029988;28;20069;-50
2022/08/25 07:09:11;;;;;;;17.13;12.50;;;;;;;24.80;100.00;96415.72;5028940;28;20609;-50
2022/08/25 07:11:40;;;;;;;18.45;12.57;;;;;;;25.55;100.00;96408.66;5030024;28;20088;-50
2022/08/25 07:14:10;;;;;;;18.88;13.13;;;;;;;25.34;100.00;96408.25;5024343;28;20080;-52
2022/08/25 07:16:39;;;;;;;21.25;12.55;;;;;;;25.00;100.00;96401.84;5028971;28;20091;-48
2022/08/25 07:19:14;;;;;;;18.38;12.23;;;;;;;25.40;100.00;96402.97;5027584;28;20081;-53
2022/08/25 07:21:45;;;;;;;16.02;12.38;;;;;;;25.05;100.00;96407.38;5028810;28;20519;-51
2022/08/25 07:24:15;;;;;;;17.85;12.25;;;;;;;24.89;100.00;96400.00;5023338;28;20087;-51
2022/08/25 07:26:45;;;;;;;16.63;12.73;;;;;;;25.45;100.00;96394.97;5029437;28;20080;-50
2022/08/25 07:29:15;;;;;;;;;;;;;;;25.74;100.00;96399.31;5027004;28;20120;-50
2022/08/25 07:31:44;;;;;;;16.13;11.60;;;;;;;26.18;100.00;96394.13;5029271;28;20419;-55
2022/08/25 07:37:03;;;;;;;20.10;12.52;;;;;;;25.69;100.00;96390.28;5023532;28;20088;-49
2022/08/25 07:39:33;;;;;;;16.60;12.80;;;;;;;26.02;100.00;96394.97;5029257;28;20501;-50
2022/08/25 07:42:01;;;;;;;18.80;12.63;;;;;;;26.24;100.00;96395.88;5029392;28;20174;-50
2022/08/25 07:44:30;;;;;;;15.82;11.63;;;;;;;25.96;100.00;96399.44;5026800;28;20077;-54
2022/08/25 07:46:58;;;;;;;15.18;11.20;;;;;;;26.10;100.00;96402.66;5029726;28;20077;-49
2022/08/25 07:49:27;;;;;;;15.75;11.90;;;;;;;25.88;100.00;96391.75;5029381;28;20539;-50
2022/08/25 07:52:04;;;;;;;19.33;12.70;;;;;;;25.76;100.00;96391.78;5029056;28;20081;-50
2022/08/25 07:54:34;;;;;;;15.60;12.38;;;;;;;26.25;100.00;96392.09;5028763;28;20265;-53
2022/08/25 07:57:07;;;;;;;15.88;12.63;;;;;;;26.78;100.00;96398.09;5027592;28;20103;-50
2022/08/25 07:59:39;;;;;;;15.85;12.70;;;;;;;27.15;100.00;96390.22;5028714;28;20152;-52
2022/08/25 08:02:09;;;;;;;15.40;11.48;;;;;;;27.01;100.00;96393.50;5029132;28;20073;-55
2022/08/25 08:04:48;;;;;;;16.08;12.23;;;;;;;26.20;100.00;96400.13;5029568;28;20771;-50
2022/08/25 08:07:18;;;;;;;16.20;12.07;;;;;;;26.64;100.00;96394.09;5029356;28;20092;-54
2022/08/25 08:09:47;;;;;;;13.93;11.48;;;;;;;26.35;100.00;96390.63;5022648;28;20077;-53
2022/08/25 08:12:34;;;;;;;13.88;10.75;;;;;;;26.95;100.00;96396.16;5024802;28;20077;-52
2022/08/25 08:15:03;;;;;;;14.90;10.20;;;;;;;26.50;100.00;96394.44;5028874;28;20516;-57
2022/08/25 08:17:38;;;;;;;13.63;11.60;;;;;;;27.27;100.00;96390.09;5022375;28;20085;-54
2022/08/25 08:20:08;;;;;;;15.18;10.95;;;;;;;26.99;100.00;96399.19;5020158;28;20485;-52
2022/08/25 08:22:40;;;;;;;15.95;11.25;;;;;;;27.53;100.00;96391.22;5028570;28;20092;-53
2022/08/25 08:25:11;;;;;;;14.30;11.00;;;;;;;26.66;100.00;96390.03;5025115;28;20081;-51
2022/08/25 08:27:46;;;;;;;12.82;10.65;;;;;;;27.18;100.00;96389.69;5028209;28;20123;-52
2022/08/25 08:30:14;;;;;;;12.77;9.98;;;;;;;27.53;100.00;96387.66;5028025;28;20077;-56
2022/08/25 08:32:43;;;;;;;11.02;8.98;;;;;;;28.06;100.00;96384.16;5028656;28;20091;-53
2022/08/25 08:35:31;;;;;;;13.30;11.25;;;;;;;28.37;100.00;96387.94;5025127;28;20089;-47
2022/08/25 08:38:01;;;;;;;12.60;9.95;;;;;;;28.62;100.00;96386.53;5028701;28;20080;-56
2022/08/25 08:40:31;;;;;;;12.57;10.13;;;;;;;27.98;100.00;96391.94;5022527;28;20563;-51
2022/08/25 08:43:06;;;;;;;13.73;9.88;;;;;;;28.27;100.00;96385.16;5028399;28;20072;-51
2022/08/25 08:45:49;;;;;;;10.35;8.68;;;;;;;28.94;100.00;96381.03;5029375;28;20076;-56
2022/08/25 08:48:46;;;;;;;16.92;9.85;;;;;;;28.53;100.00;96380.78;5028948;28;20507;-50
2022/08/25 08:51:20;;;;;;;11.02;9.65;;;;;;;28.75;100.00;96374.41;5017325;28;20093;-52
2022/08/25 08:53:55;;;;;;;11.73;9.55;;;;;;;28.65;100.00;96377.06;5024423;28;20085;-51
2022/08/25 08:56:26;;;;;;;12.80;8.95;;;;;;;28.61;100.00;96369.44;5029348;28;20069;-55
2022/08/25 08:59:00;;;;;;;10.52;9.25;;;;;;;28.73;100.00;96360.28;5029328;28;20073;-50
2022/08/25 09:01:35;;;;;;;11.70;10.07;;;;;;;28.79;100.00;96359.22;5021642;28;20447;-57
2022/08/25 09:04:09;;;;;;;12.40;8.95;;;;;;;28.83;100.00;96363.84;5028767;28;20483;-51
2022/08/25 09:06:40;;;;;;;10.40;9.02;;;;;;;28.68;100.00;96361.06;5028897;28;20743;-51
2022/08/25 09:09:15;;;;;;;10.93;8.95;;;;;;;28.90;100.00;96352.75;5024198;28;20492;-53
2022/08/25 09:11:54;;;;;;;13.23;8.80;;;;;;;28.55;100.00;96359.63;5027159;28;20103;-53
2022/08/25 09:14:32;;;;;;;10.25;9.07;;;;;;;28.45;100.00;96361.44;5024652;28;20088;-56
2022/08/25 09:17:05;;;;;;;13.60;9.38;;;;;;;28.16;100.00;96357.16;5027635;28;20100;-54
2022/08/25 09:19:46;;;;;;;11.38;9.00;;;;;;;28.62;100.00;96357.50;5028237;28;20500;-53
2022/08/25 09:22:21;;;;;;;12.13;9.60;;;;;;;28.45;100.00;96356.84;5025319;28;20081;-51
2022/08/25 09:25:09;;;;;;;10.75;8.60;;;;;;;28.81;100.00;96346.22;5028697;28;20526;-56
2022/08/25 09:27:41;;;;;;;11.68;10.00;;;;;;;28.14;100.00;96343.03;5028583;28;20085;-54
2022/08/25 09:30:13;;;;;;;14.35;9.93;;;;;;;28.25;100.00;96348.53;5028483;28;20448;-57
2022/08/25 09:32:43;;;;;;;11.90;10.60;;;;;;;28.26;100.00;96345.56;5021231;28;20091;-57
2022/08/25 09:35:22;;;;;;;12.40;10.13;;;;;;;27.93;100.00;96350.16;5021832;28;20069;-53
2022/08/25 09:37:59;;;;;;;15.40;10.85;;;;;;;28.02;100.00;96352.41;5029065;28;20092;-55
2022/08/25 09:40:31;;;;;;;11.82;10.35;;;;;;;28.93;100.00;96349.53;5031736;28;20572;-53
2022/08/25 09:43:01;;;;;;;12.60;10.10;;;;;;;28.59;100.00;96343.63;5030940;28;20100;-58
2022/08/25 09:45:35;;;;;;;11.45;9.30;;;;;;;29.39;100.00;96343.47;5031564;28;20077;-56
2022/08/25 09:48:20;;;;;;;12.65;10.00;;;;;;;29.16;100.00;96340.16;5031941;28;20148;-50
2022/08/25 09:50:50;;;;;;;12.35;8.98;;;;;;;28.85;100.00;96344.59;5030447;28;20527;-55
2022/08/25 09:53:19;;;;;;;10.80;9.63;;;;;;;29.05;100.00;96333.88;5031381;28;20088;-53
2022/08/25 09:55:54;;;;;;;;;;;;;;;28.90;100.00;96338.38;5032460;28;20084;-50
2022/08/25 09:58:27;;;;;;;12.30;10.07;;;;;;;28.54;100.00;96343.63;5031906;28;20258;-56
2022/08/25 10:01:11;;;;;;;11.75;9.77;;;;;;;28.30;100.00;96340.44;5031913;28;20089;-55
2022/08/25 10:03:56;;;;;;;14.93;10.50;;;;;;;28.88;100.00;96333.22;5030682;28;20081;-55
2022/08/25 10:06:24;;;;;;;12.98;11.18;;;;;;;28.67;100.00;96335.00;5029689;28;20085;-53
2022/08/25 10:08:58;;;;;;;13.75;10.15;;;;;;;29.76;100.00;96324.28;5025912;28;20487;-53
2022/08/25 10:11:36;;;;;;;11.98;10.52;;;;;;;29.72;100.00;96326.75;5026333;28;20081;-53
2022/08/25 10:14:28;;;;;;;14.32;10.73;;;;;;;29.01;100.00;96327.34;5029942;28;20073;-48
2022/08/25 10:17:13;;;;;;;15.05;10.57;;;;;;;30.07;100.00;96324.31;5031502;28;20607;-49
2022/08/25 10:19:42;;;;;;;14.02;9.95;;;;;;;30.09;100.00;96320.25;5026467;28;20100;-50
2022/08/25 10:22:12;;;;;;;14.85;10.20;;;;;;;29.60;100.00;96315.31;5030841;28;20085;-54
2022/08/25 10:24:41;;;;;;;12.15;9.85;;;;;;;29.97;100.00;96317.81;5030951;28;20149;-52
2022/08/25 10:27:21;;;;;;;14.10;11.07;;;;;;;29.82;100.00;96314.25;5030085;28;20084;-55
2022/08/25 10:29:58;;;;;;;15.15;10.80;;;;;;;29.48;100.00;96309.28;5030021;28;20092;-49
2022/08/25 10:32:37;;;;;;;18.77;11.35;;;;;;;30.22;100.00;96306.13;5026062;28;20069;-50
2022/08/25 10:35:09;;;;;;;18.63;10.40;;;;;;;29.80;100.00;96296.31;5030429;28;20104;-52
2022/08/25 10:37:43;;;;;;;17.77;10.60;;;;;;;30.09;100.00;96297.66;5025551;28;20465;-55
2022/08/25 10:40:17;;;;;;;17.17;10.30;;;;;;;29.73;100.00;96289.50;5030630;28;20088;-52
2022/08/25 10:42:58;;;;;;;16.45;9.13;;;;;;;30.13;100.00;96287.88;5030241;28;20084;-50
2022/08/25 10:45:42;;;;;;;14.40;9.85;;;;;;;29.84;100.00;96291.16;5029273;28;20089;-55
2022/08/25 10:48:30;;;;;;;15.55;8.93;;;;;;;30.62;100.00;96284.53;5030699;28;20100;-50
2022/08/25 10:51:03;;;;;;;18.65;9.48;;;;;;;30.88;100.00;96288.84;5026113;28;20092;-49
2022/08/25 10:53:41;;;;;;;16.50;9.25;;;;;;;29.82;100.00;96289.78;5030253;28;20642;-55
2022/08/25 10:56:13;;;;;;;14.32;9.02;;;;;;;29.90;100.00;96289.22;5030241;28;20085;-51
2022/08/25 10:58:59;;;;;;;16.05;9.30;;;;;;;30.17;100.00;96281.59;5030313;28;20081;-50
2022/08/25 11:01:38;;;;;;;17.08;9.07;;;;;;;30.09;100.00;96278.63;5026040;28;20490;-51
2022/08/25 11:04:14;;;;;;;14.60;8.95;;;;;;;30.11;100.00;96281.88;5029505;28;20103;-49
2022/08/25 11:06:47;;;;;;;19.80;10.30;;;;;;;30.15;100.00;96283.78;5024638;28;20163;-55
2022/08/25 11:09:25;;;;;;;14.85;8.32;;;;;;;30.75;99.52;96275.78;5021958;28;20073;-54
2022/08/25 11:11:57;;;;;;;17.20;9.43;;;;;;;30.91;100.00;96282.84;5030048;28;20555;-50
2022/08/25 11:14:31;;;;;;;17.13;8.88;;;;;;;31.09;95.31;96275.94;5027639;28;20085;-50
2022/08/25 11:17:05;;;;;;;17.15;9.45;;;;;;;30.97;100.00;96276.28;5030267;28;20081;-50
2022/08/25 11:19:36;;;;;;;13.75;8.82;;;;;;;30.67;100.00;96271.72;5025011;28;20557;-50
2022/08/25 11:22:12;;;;;;;19.52;9.73;;;;;;;31.76;96.17;96265.44;5029547;28;20653;-52
2022/08/25 11:24:56;;;;;;;14.20;8.52;;;;;;;31.32;95.54;96268.22;5030147;28;20088;-50
2022/08/25 11:27:32;;;;;;;17.48;8.93;;;;;;;31.50;86.58;96264.84;5030162;28;20085;-47
2022/08/25 11:30:07;;;;;;;15.07;7.90;;;;;;;31.65;79.48;96269.34;5029403;28;20084;-47
2022/08/25 11:32:37;;;;;;;17.42;8.63;;;;;;;31.60;78.13;96266.69;5027115;28;20081;-50
2022/08/25 11:35:10;;;;;;;12.82;8.40;;;;;;;31.68;80.92;96261.41;5030084;28;20081;-50
2022/08/25 11:37:46;;;;;;;14.25;8.52;;;;;;;32.30;77.34;96247.28;5030065;28;20520;-56
2022/08/25 11:40:21;;;;;;;16.40;9.38;;;;;;;32.26;73.82;96257.97;5029611;28;20092;-53
2022/08/25 11:43:01;;;;;;;16.55;9.32;;;;;;;32.29;81.63;96254.66;5028994;28;20073;-49
2022/08/25 11:45:37;;;;;;;;;;;;;;;31.84;86.67;96253.94;5030704;28;20088;-54